sensor_id;sensor_type;location;lat;lon;timestamp;temperature;humidity
3996;DHT22;2012;49.794;9.722;2023-04-06T00:00:53;1.90;99.90
3996;DHT22;2012;49.794;9.722;2023-04-06T00:03:20;1.90;99.90
3996;DHT22;2012;49.794;9.722;2023-04-06T00:05:48;1.70;99.90
3996;DHT22;2012;49.794;9.722;2023-04-06T00:08:15;1.80;99.90
3996;DHT22;2012;49.794;9.722;2023-04-06T00:10:42;1.80;99.90
3996;DHT22;2012;49.794;9.722;2023-04-06T00:13:09;1.80;99.90
3996;DHT22;2012;49.794;9.722;2023-04-06T00:15:36;1.80;99.90
3996;DHT22;2012;49.794;9.722;2023-04-06T00:18:03;1.70;99.90
3996;DHT22;2012;49.794;9.722;2023-04-06T00:20:30;1.70;99.90
3996;DHT22;2012;49.794;9.722;2023-04-06T00:22:57;1.80;99.90
3996;DHT22;2012;49.794;9.722;2023-04-06T00:25:24;1.70;99.90
3996;DHT22;2012;49.794;9.722;2023-04-06T00:27:51;1.70;99.90
3996;DHT22;2012;49.794;9.722;2023-04-06T00:30:18;1.70;99.90
3996;DHT22;2012;49.794;9.722;2023-04-06T00:32:45;1.70;99.90
3996;DHT22;2012;49.794;9.722;2023-04-06T00:35:12;1.60;99.90
3996;DHT22;2012;49.794;9.722;2023-04-06T00:37:39;1.50;99.90
3996;DHT22;2012;49.794;9.722;2023-04-06T00:40:06;1.40;99.90
3996;DHT22;2012;49.794;9.722;2023-04-06T00:42:33;1.50;99.90
3996;DHT22;2012;49.794;9.722;2023-04-06T00:45:01;1.50;99.90
3996;DHT22;2012;49.794;9.722;2023-04-06T00:47:28;1.40;99.90
3996;DHT22;2012;49.794;9.722;2023-04-06T00:49:56;1.40;99.90
3996;DHT22;2012;49.794;9.722;2023-04-06T00:52:23;1.30;99.90
3996;DHT22;2012;49.794;9.722;2023-04-06T00:54:51;1.40;99.90
3996;DHT22;2012;49.794;9.722;2023-04-06T00:57:19;1.50;99.90
3996;DHT22;2012;49.794;9.722;2023-04-06T00:59:52;1.50;99.90
3996;DHT22;2012;49.794;9.722;2023-04-06T01:02:19;1.50;99.90
3996;DHT22;2012;49.794;9.722;2023-04-06T01:04:49;1.40;99.90
3996;DHT22;2012;49.794;9.722;2023-04-06T01:07:37;1.30;99.90
3996;DHT22;2012;49.794;9.722;2023-04-06T01:10:24;1.30;99.90
3996;DHT22;2012;49.794;9.722;2023-04-06T01:12:56;1.30;99.90
3996;DHT22;2012;49.794;9.722;2023-04-06T01:15:42;1.30;99.90
3996;DHT22;2012;49.794;9.722;2023-04-06T01:18:13;1.40;99.90
3996;DHT22;2012;49.794;9.722;2023-04-06T01:20:46;1.40;99.90
3996;DHT22;2012;49.794;9.722;2023-04-06T01:23:14;1.30;99.90
3996;DHT22;2012;49.794;9.722;2023-04-06T01:25:45;1.20;99.90
3996;DHT22;2012;49.794;9.722;2023-04-06T01:28:12;1.10;99.90
3996;DHT22;2012;49.794;9.722;2023-04-06T01:30:52;0.90;99.90
3996;DHT22;2012;49.794;9.722;2023-04-06T01:33:38;0.90;99.90
3996;DHT22;2012;49.794;9.722;2023-04-06T01:36:08;1.00;99.90
3996;DHT22;2012;49.794;9.722;2023-04-06T01:38:35;1.00;99.90
3996;DHT22;2012;49.794;9.722;2023-04-06T01:41:02;1.10;99.90
3996;DHT22;2012;49.794;9.722;2023-04-06T01:43:34;1.10;99.90
3996;DHT22;2012;49.794;9.722;2023-04-06T01:46:07;1.00;99.90
3996;DHT22;2012;49.794;9.722;2023-04-06T01:48:38;1.00;99.90
3996;DHT22;2012;49.794;9.722;2023-04-06T01:51:27;1.00;99.90
3996;DHT22;2012;49.794;9.722;2023-04-06T01:53:58;1.00;99.90
3996;DHT22;2012;49.794;9.722;2023-04-06T01:56:35;0.90;99.90
3996;DHT22;2012;49.794;9.722;2023-04-06T01:59:14;0.90;99.90
3996;DHT22;2012;49.794;9.722;2023-04-06T02:01:42;0.90;99.90
3996;DHT22;2012;49.794;9.722;2023-04-06T02:04:09;0.90;99.90
3996;DHT22;2012;49.794;9.722;2023-04-06T02:06:36;0.90;99.90
3996;DHT22;2012;49.794;9.722;2023-04-06T02:09:06;0.90;99.90
3996;DHT22;2012;49.794;9.722;2023-04-06T02:11:33;0.90;99.90
3996;DHT22;2012;49.794;9.722;2023-04-06T02:14:00;0.80;99.90
3996;DHT22;2012;49.794;9.722;2023-04-06T02:16:30;0.70;99.90
3996;DHT22;2012;49.794;9.722;2023-04-06T02:18:58;0.70;99.90
3996;DHT22;2012;49.794;9.722;2023-04-06T02:21:24;0.80;99.90
3996;DHT22;2012;49.794;9.722;2023-04-06T02:23:51;0.80;99.90
3996;DHT22;2012;49.794;9.722;2023-04-06T02:26:18;0.70;99.90
3996;DHT22;2012;49.794;9.722;2023-04-06T02:28:45;0.60;99.90
3996;DHT22;2012;49.794;9.722;2023-04-06T02:31:12;0.60;99.90
3996;DHT22;2012;49.794;9.722;2023-04-06T02:33:42;0.30;99.90
3996;DHT22;2012;49.794;9.722;2023-04-06T02:36:11;0.50;99.90
3996;DHT22;2012;49.794;9.722;2023-04-06T02:38:38;0.60;99.90
3996;DHT22;2012;49.794;9.722;2023-04-06T02:41:05;0.70;99.90
3996;DHT22;2012;49.794;9.722;2023-04-06T02:43:32;0.70;99.90
3996;DHT22;2012;49.794;9.722;2023-04-06T02:46:29;0.60;99.90
3996;DHT22;2012;49.794;9.722;2023-04-06T02:48:56;0.50;99.90
3996;DHT22;2012;49.794;9.722;2023-04-06T02:51:24;0.50;99.90
3996;DHT22;2012;49.794;9.722;2023-04-06T02:53:56;0.50;99.90
3996;DHT22;2012;49.794;9.722;2023-04-06T02:56:22;0.50;99.90
3996;DHT22;2012;49.794;9.722;2023-04-06T02:58:51;0.40;99.90
3996;DHT22;2012;49.794;9.722;2023-04-06T03:01:20;0.50;99.90
3996;DHT22;2012;49.794;9.722;2023-04-06T03:03:52;0.50;99.90
3996;DHT22;2012;49.794;9.722;2023-04-06T03:06:23;0.40;99.90
3996;DHT22;2012;49.794;9.722;2023-04-06T03:08:54;0.30;99.90
3996;DHT22;2012;49.794;9.722;2023-04-06T03:11:21;0.40;99.90
3996;DHT22;2012;49.794;9.722;2023-04-06T03:13:50;0.40;99.90
3996;DHT22;2012;49.794;9.722;2023-04-06T03:16:17;0.40;99.90
3996;DHT22;2012;49.794;9.722;2023-04-06T03:18:45;0.40;99.90
3996;DHT22;2012;49.794;9.722;2023-04-06T03:21:13;0.40;99.90
3996;DHT22;2012;49.794;9.722;2023-04-06T03:23:47;0.40;99.90
3996;DHT22;2012;49.794;9.722;2023-04-06T03:26:16;0.20;99.90
3996;DHT22;2012;49.794;9.722;2023-04-06T03:28:44;0.20;99.90
3996;DHT22;2012;49.794;9.722;2023-04-06T03:31:11;0.30;99.90
3996;DHT22;2012;49.794;9.722;2023-04-06T03:33:45;0.30;99.90
3996;DHT22;2012;49.794;9.722;2023-04-06T03:36:21;0.20;99.90
3996;DHT22;2012;49.794;9.722;2023-04-06T03:38:48;0.20;99.90
3996;DHT22;2012;49.794;9.722;2023-04-06T03:41:14;0.20;99.90
3996;DHT22;2012;49.794;9.722;2023-04-06T03:43:48;0.10;99.90
3996;DHT22;2012;49.794;9.722;2023-04-06T03:46:16;0.00;99.90
3996;DHT22;2012;49.794;9.722;2023-04-06T03:48:44;-0.20;99.90
3996;DHT22;2012;49.794;9.722;2023-04-06T03:51:11;-0.20;99.90
3996;DHT22;2012;49.794;9.722;2023-04-06T03:53:38;-0.10;99.90
3996;DHT22;2012;49.794;9.722;2023-04-06T03:56:05;-0.10;99.90
3996;DHT22;2012;49.794;9.722;2023-04-06T03:58:32;-0.10;99.90
3996;DHT22;2012;49.794;9.722;2023-04-06T04:00:59;-0.10;99.90
3996;DHT22;2012;49.794;9.722;2023-04-06T04:03:26;0.00;99.90
3996;DHT22;2012;49.794;9.722;2023-04-06T04:05:54;0.00;99.90
3996;DHT22;2012;49.794;9.722;2023-04-06T04:08:25;0.00;99.90
3996;DHT22;2012;49.794;9.722;2023-04-06T04:10:52;0.00;99.90
3996;DHT22;2012;49.794;9.722;2023-04-06T04:13:19;0.00;99.90
3996;DHT22;2012;49.794;9.722;2023-04-06T04:15:48;-0.10;99.90
3996;DHT22;2012;49.794;9.722;2023-04-06T04:18:15;-0.20;99.90
3996;DHT22;2012;49.794;9.722;2023-04-06T04:20:42;-0.30;99.90
3996;DHT22;2012;49.794;9.722;2023-04-06T04:23:10;-0.30;99.90
3996;DHT22;2012;49.794;9.722;2023-04-06T04:25:37;-0.20;99.90
3996;DHT22;2012;49.794;9.722;2023-04-06T04:28:04;-0.20;99.90
3996;DHT22;2012;49.794;9.722;2023-04-06T04:30:31;-0.20;99.90
3996;DHT22;2012;49.794;9.722;2023-04-06T04:32:58;-0.30;99.90
3996;DHT22;2012;49.794;9.722;2023-04-06T04:35:26;-0.30;99.90
3996;DHT22;2012;49.794;9.722;2023-04-06T04:37:53;-0.30;99.90
3996;DHT22;2012;49.794;9.722;2023-04-06T04:40:20;-0.20;99.90
3996;DHT22;2012;49.794;9.722;2023-04-06T04:42:51;-0.20;99.90
3996;DHT22;2012;49.794;9.722;2023-04-06T04:45:25;-0.30;99.90
3996;DHT22;2012;49.794;9.722;2023-04-06T04:47:52;-0.50;99.90
3996;DHT22;2012;49.794;9.722;2023-04-06T04:50:22;-0.50;99.90
3996;DHT22;2012;49.794;9.722;2023-04-06T04:52:53;-0.40;99.90
3996;DHT22;2012;49.794;9.722;2023-04-06T04:55:22;-0.30;99.90
3996;DHT22;2012;49.794;9.722;2023-04-06T04:57:53;-0.30;99.90
3996;DHT22;2012;49.794;9.722;2023-04-06T05:00:25;-0.30;99.90
3996;DHT22;2012;49.794;9.722;2023-04-06T05:02:56;-0.40;99.90
3996;DHT22;2012;49.794;9.722;2023-04-06T05:05:30;-0.40;99.90
3996;DHT22;2012;49.794;9.722;2023-04-06T05:07:58;-0.40;99.90
3996;DHT22;2012;49.794;9.722;2023-04-06T05:10:37;-0.40;99.90
3996;DHT22;2012;49.794;9.722;2023-04-06T05:13:04;-0.40;99.90
3996;DHT22;2012;49.794;9.722;2023-04-06T05:15:31;-0.30;99.90
3996;DHT22;2012;49.794;9.722;2023-04-06T05:18:05;-0.30;99.90
3996;DHT22;2012;49.794;9.722;2023-04-06T05:20:35;-0.40;99.90
3996;DHT22;2012;49.794;9.722;2023-04-06T05:23:02;-0.40;99.90
3996;DHT22;2012;49.794;9.722;2023-04-06T05:25:30;-0.30;99.90
3996;DHT22;2012;49.794;9.722;2023-04-06T05:28:03;-0.30;99.90
3996;DHT22;2012;49.794;9.722;2023-04-06T05:30:33;2.40;99.90
3996;DHT22;2012;49.794;9.722;2023-04-06T05:33:02;2.90;99.90
3996;DHT22;2012;49.794;9.722;2023-04-06T05:35:39;2.80;99.90
3996;DHT22;2012;49.794;9.722;2023-04-06T05:38:10;2.60;99.90
3996;DHT22;2012;49.794;9.722;2023-04-06T05:40:37;2.70;99.90
3996;DHT22;2012;49.794;9.722;2023-04-06T05:43:10;2.30;99.90
3996;DHT22;2012;49.794;9.722;2023-04-06T05:45:41;2.40;99.90
3996;DHT22;2012;49.794;9.722;2023-04-06T05:48:07;2.40;99.90
3996;DHT22;2012;49.794;9.722;2023-04-06T05:50:34;2.30;99.90
3996;DHT22;2012;49.794;9.722;2023-04-06T05:53:01;2.60;99.90
3996;DHT22;2012;49.794;9.722;2023-04-06T05:55:35;2.50;99.90
3996;DHT22;2012;49.794;9.722;2023-04-06T05:58:10;2.80;99.90
3996;DHT22;2012;49.794;9.722;2023-04-06T06:00:37;2.30;99.90
3996;DHT22;2012;49.794;9.722;2023-04-06T06:03:06;2.20;99.90
3996;DHT22;2012;49.794;9.722;2023-04-06T06:05:36;2.50;99.90
3996;DHT22;2012;49.794;9.722;2023-04-06T06:08:08;2.40;99.90
3996;DHT22;2012;49.794;9.722;2023-04-06T06:10:38;2.40;99.90
3996;DHT22;2012;49.794;9.722;2023-04-06T06:13:07;2.50;99.90
3996;DHT22;2012;49.794;9.722;2023-04-06T06:15:35;2.20;99.90
3996;DHT22;2012;49.794;9.722;2023-04-06T06:18:02;1.90;99.90
3996;DHT22;2012;49.794;9.722;2023-04-06T06:20:29;2.30;99.90
3996;DHT22;2012;49.794;9.722;2023-04-06T06:23:00;2.60;99.90
3996;DHT22;2012;49.794;9.722;2023-04-06T06:25:27;2.10;99.90
3996;DHT22;2012;49.794;9.722;2023-04-06T06:27:55;2.30;99.90
3996;DHT22;2012;49.794;9.722;2023-04-06T06:30:22;2.10;99.90
3996;DHT22;2012;49.794;9.722;2023-04-06T06:32:50;1.60;99.90
3996;DHT22;2012;49.794;9.722;2023-04-06T06:35:18;1.70;99.90
3996;DHT22;2012;49.794;9.722;2023-04-06T06:37:46;1.80;99.90
3996;DHT22;2012;49.794;9.722;2023-04-06T06:40:17;1.50;99.90
3996;DHT22;2012;49.794;9.722;2023-04-06T06:42:46;1.50;99.90
3996;DHT22;2012;49.794;9.722;2023-04-06T06:45:24;1.40;99.90
3996;DHT22;2012;49.794;9.722;2023-04-06T06:47:52;1.50;99.90
3996;DHT22;2012;49.794;9.722;2023-04-06T06:50:21;1.60;99.90
3996;DHT22;2012;49.794;9.722;2023-04-06T06:52:48;1.50;99.90
3996;DHT22;2012;49.794;9.722;2023-04-06T06:55:15;1.70;99.90
3996;DHT22;2012;49.794;9.722;2023-04-06T06:57:42;1.70;99.90
3996;DHT22;2012;49.794;9.722;2023-04-06T07:00:09;1.80;99.90
3996;DHT22;2012;49.794;9.722;2023-04-06T07:02:40;2.00;99.90
3996;DHT22;2012;49.794;9.722;2023-04-06T07:05:07;1.90;99.90
3996;DHT22;2012;49.794;9.722;2023-04-06T07:07:52;2.00;99.90
3996;DHT22;2012;49.794;9.722;2023-04-06T07:10:19;1.80;99.90
3996;DHT22;2012;49.794;9.722;2023-04-06T07:12:46;1.70;99.90
3996;DHT22;2012;49.794;9.722;2023-04-06T07:15:13;1.90;99.90
3996;DHT22;2012;49.794;9.722;2023-04-06T07:17:40;2.10;99.90
3996;DHT22;2012;49.794;9.722;2023-04-06T07:20:12;2.20;99.90
3996;DHT22;2012;49.794;9.722;2023-04-06T07:22:40;2.30;99.90
3996;DHT22;2012;49.794;9.722;2023-04-06T07:25:07;2.40;99.90
3996;DHT22;2012;49.794;9.722;2023-04-06T07:27:34;2.40;99.90
3996;DHT22;2012;49.794;9.722;2023-04-06T07:30:01;2.50;99.90
3996;DHT22;2012;49.794;9.722;2023-04-06T07:32:28;2.60;99.90
3996;DHT22;2012;49.794;9.722;2023-04-06T07:34:56;2.60;99.90
3996;DHT22;2012;49.794;9.722;2023-04-06T07:37:22;2.60;99.90
3996;DHT22;2012;49.794;9.722;2023-04-06T07:39:49;2.90;99.90
3996;DHT22;2012;49.794;9.722;2023-04-06T07:42:18;2.90;99.90
3996;DHT22;2012;49.794;9.722;2023-04-06T07:44:45;3.00;99.90
3996;DHT22;2012;49.794;9.722;2023-04-06T07:47:11;3.20;99.90
3996;DHT22;2012;49.794;9.722;2023-04-06T07:49:38;3.30;99.90
3996;DHT22;2012;49.794;9.722;2023-04-06T07:52:05;3.40;99.90
3996;DHT22;2012;49.794;9.722;2023-04-06T07:54:32;3.50;99.90
3996;DHT22;2012;49.794;9.722;2023-04-06T07:56:59;3.70;99.90
3996;DHT22;2012;49.794;9.722;2023-04-06T07:59:26;3.90;99.90
3996;DHT22;2012;49.794;9.722;2023-04-06T08:01:53;3.90;99.90
3996;DHT22;2012;49.794;9.722;2023-04-06T08:04:20;4.00;99.90
3996;DHT22;2012;49.794;9.722;2023-04-06T08:06:47;4.00;99.90
3996;DHT22;2012;49.794;9.722;2023-04-06T08:09:13;4.20;99.90
3996;DHT22;2012;49.794;9.722;2023-04-06T08:11:40;4.30;99.90
3996;DHT22;2012;49.794;9.722;2023-04-06T08:14:07;4.50;99.90
3996;DHT22;2012;49.794;9.722;2023-04-06T08:16:34;4.60;99.90
3996;DHT22;2012;49.794;9.722;2023-04-06T08:19:01;4.70;99.90
3996;DHT22;2012;49.794;9.722;2023-04-06T08:21:28;4.80;99.90
3996;DHT22;2012;49.794;9.722;2023-04-06T08:23:55;5.00;99.90
3996;DHT22;2012;49.794;9.722;2023-04-06T08:26:21;5.20;99.90
3996;DHT22;2012;49.794;9.722;2023-04-06T08:28:48;5.30;99.90
3996;DHT22;2012;49.794;9.722;2023-04-06T08:31:15;5.30;99.90
3996;DHT22;2012;49.794;9.722;2023-04-06T08:33:42;5.40;99.90
3996;DHT22;2012;49.794;9.722;2023-04-06T08:36:13;5.40;99.90
3996;DHT22;2012;49.794;9.722;2023-04-06T08:38:40;5.60;99.90
3996;DHT22;2012;49.794;9.722;2023-04-06T08:41:11;5.80;99.90
3996;DHT22;2012;49.794;9.722;2023-04-06T08:46:10;6.30;99.90
3996;DHT22;2012;49.794;9.722;2023-04-06T08:48:41;6.40;99.90
3996;DHT22;2012;49.794;9.722;2023-04-06T08:51:10;6.40;99.90
3996;DHT22;2012;49.794;9.722;2023-04-06T08:53:37;6.50;99.90
3996;DHT22;2012;49.794;9.722;2023-04-06T08:56:05;6.70;99.90
3996;DHT22;2012;49.794;9.722;2023-04-06T08:58:35;6.70;99.90
3996;DHT22;2012;49.794;9.722;2023-04-06T09:01:10;6.70;99.90
3996;DHT22;2012;49.794;9.722;2023-04-06T09:03:39;7.00;99.90
3996;DHT22;2012;49.794;9.722;2023-04-06T09:06:07;7.10;99.90
3996;DHT22;2012;49.794;9.722;2023-04-06T09:08:34;7.10;99.90
3996;DHT22;2012;49.794;9.722;2023-04-06T09:11:02;7.50;99.90
3996;DHT22;2012;49.794;9.722;2023-04-06T09:13:30;7.50;99.90
3996;DHT22;2012;49.794;9.722;2023-04-06T09:16:04;7.60;99.90
3996;DHT22;2012;49.794;9.722;2023-04-06T09:18:32;7.70;99.90
3996;DHT22;2012;49.794;9.722;2023-04-06T09:21:04;8.10;99.90
3996;DHT22;2012;49.794;9.722;2023-04-06T09:23:32;8.40;99.90
3996;DHT22;2012;49.794;9.722;2023-04-06T09:26:15;8.20;99.90
3996;DHT22;2012;49.794;9.722;2023-04-06T09:28:52;8.50;99.90
3996;DHT22;2012;49.794;9.722;2023-04-06T09:31:24;8.60;99.20
3996;DHT22;2012;49.794;9.722;2023-04-06T09:33:51;8.50;95.70
3996;DHT22;2012;49.794;9.722;2023-04-06T09:36:19;8.90;95.00
3996;DHT22;2012;49.794;9.722;2023-04-06T09:38:57;9.00;94.40
3996;DHT22;2012;49.794;9.722;2023-04-06T09:41:35;9.30;94.10
3996;DHT22;2012;49.794;9.722;2023-04-06T09:44:10;9.00;90.40
3996;DHT22;2012;49.794;9.722;2023-04-06T09:46:44;9.10;91.90
3996;DHT22;2012;49.794;9.722;2023-04-06T09:49:28;9.30;89.10
3996;DHT22;2012;49.794;9.722;2023-04-06T09:52:00;9.60;85.00
3996;DHT22;2012;49.794;9.722;2023-04-06T09:54:29;9.60;86.90
3996;DHT22;2012;49.794;9.722;2023-04-06T09:59:36;9.80;80.90
3996;DHT22;2012;49.794;9.722;2023-04-06T10:02:05;10.00;79.00
3996;DHT22;2012;49.794;9.722;2023-04-06T10:04:47;10.10;78.10
3996;DHT22;2012;49.794;9.722;2023-04-06T10:07:16;10.20;81.20
3996;DHT22;2012;49.794;9.722;2023-04-06T10:09:46;10.40;80.70
3996;DHT22;2012;49.794;9.722;2023-04-06T10:12:15;10.50;78.00
3996;DHT22;2012;49.794;9.722;2023-04-06T10:14:43;10.30;75.50
3996;DHT22;2012;49.794;9.722;2023-04-06T10:17:10;10.60;73.20
3996;DHT22;2012;49.794;9.722;2023-04-06T10:22:39;10.80;74.30
3996;DHT22;2012;49.794;9.722;2023-04-06T10:25:08;11.30;75.50
3996;DHT22;2012;49.794;9.722;2023-04-06T10:27:35;11.30;72.70
3996;DHT22;2012;49.794;9.722;2023-04-06T10:30:04;11.20;71.70
3996;DHT22;2012;49.794;9.722;2023-04-06T10:32:37;11.10;69.50
3996;DHT22;2012;49.794;9.722;2023-04-06T10:35:11;11.40;71.20
3996;DHT22;2012;49.794;9.722;2023-04-06T10:37:50;11.60;71.00
3996;DHT22;2012;49.794;9.722;2023-04-06T10:40:27;11.90;71.70
3996;DHT22;2012;49.794;9.722;2023-04-06T10:42:55;11.60;70.70
3996;DHT22;2012;49.794;9.722;2023-04-06T10:45:24;11.40;68.00
3996;DHT22;2012;49.794;9.722;2023-04-06T10:47:54;11.60;70.00
3996;DHT22;2012;49.794;9.722;2023-04-06T10:50:22;11.40;67.70
3996;DHT22;2012;49.794;9.722;2023-04-06T10:53:00;11.50;72.10
3996;DHT22;2012;49.794;9.722;2023-04-06T10:55:29;12.10;70.20
3996;DHT22;2012;49.794;9.722;2023-04-06T10:57:56;12.10;67.60
3996;DHT22;2012;49.794;9.722;2023-04-06T11:00:23;12.20;70.70
3996;DHT22;2012;49.794;9.722;2023-04-06T11:02:59;12.30;70.00
3996;DHT22;2012;49.794;9.722;2023-04-06T11:05:27;12.40;68.40
3996;DHT22;2012;49.794;9.722;2023-04-06T11:07:55;12.30;66.30
3996;DHT22;2012;49.794;9.722;2023-04-06T11:10:22;11.70;66.10
3996;DHT22;2012;49.794;9.722;2023-04-06T11:12:56;11.80;69.30
3996;DHT22;2012;49.794;9.722;2023-04-06T11:15:23;12.20;68.90
3996;DHT22;2012;49.794;9.722;2023-04-06T11:17:50;12.50;70.90
3996;DHT22;2012;49.794;9.722;2023-04-06T11:20:17;12.80;69.70
3996;DHT22;2012;49.794;9.722;2023-04-06T11:22:50;13.00;67.10
3996;DHT22;2012;49.794;9.722;2023-04-06T11:25:17;12.50;62.20
3996;DHT22;2012;49.794;9.722;2023-04-06T11:27:46;12.70;65.10
3996;DHT22;2012;49.794;9.722;2023-04-06T11:30:14;12.90;66.40
3996;DHT22;2012;49.794;9.722;2023-04-06T11:32:42;12.60;64.30
3996;DHT22;2012;49.794;9.722;2023-04-06T11:35:31;12.30;63.30
3996;DHT22;2012;49.794;9.722;2023-04-06T11:38:02;11.90;64.10
3996;DHT22;2012;49.794;9.722;2023-04-06T11:40:29;12.00;65.80
3996;DHT22;2012;49.794;9.722;2023-04-06T11:42:56;12.40;66.10
3996;DHT22;2012;49.794;9.722;2023-04-06T11:45:23;12.70;64.40
3996;DHT22;2012;49.794;9.722;2023-04-06T11:47:58;12.70;64.70
3996;DHT22;2012;49.794;9.722;2023-04-06T11:50:32;12.40;64.30
3996;DHT22;2012;49.794;9.722;2023-04-06T11:53:01;12.50;66.40
3996;DHT22;2012;49.794;9.722;2023-04-06T11:55:36;12.70;63.90
3996;DHT22;2012;49.794;9.722;2023-04-06T11:58:03;12.80;64.50
3996;DHT22;2012;49.794;9.722;2023-04-06T12:00:30;13.20;65.60
3996;DHT22;2012;49.794;9.722;2023-04-06T12:03:00;13.20;61.80
3996;DHT22;2012;49.794;9.722;2023-04-06T12:05:28;13.30;61.70
3996;DHT22;2012;49.794;9.722;2023-04-06T12:07:55;13.50;60.80
3996;DHT22;2012;49.794;9.722;2023-04-06T12:10:23;13.90;62.20
3996;DHT22;2012;49.794;9.722;2023-04-06T12:12:50;13.90;60.70
3996;DHT22;2012;49.794;9.722;2023-04-06T12:15:17;13.90;62.20
3996;DHT22;2012;49.794;9.722;2023-04-06T12:17:43;13.60;63.10
3996;DHT22;2012;49.794;9.722;2023-04-06T12:20:11;13.50;65.20
3996;DHT22;2012;49.794;9.722;2023-04-06T12:22:51;13.10;62.30
3996;DHT22;2012;49.794;9.722;2023-04-06T12:25:18;12.80;62.20
3996;DHT22;2012;49.794;9.722;2023-04-06T12:27:44;13.30;62.90
3996;DHT22;2012;49.794;9.722;2023-04-06T12:30:12;13.70;61.40
3996;DHT22;2012;49.794;9.722;2023-04-06T12:32:39;14.10;63.00
3996;DHT22;2012;49.794;9.722;2023-04-06T12:35:06;14.80;76.60
3996;DHT22;2012;49.794;9.722;2023-04-06T12:37:35;15.40;67.90
3996;DHT22;2012;49.794;9.722;2023-04-06T12:40:04;15.20;60.10
3996;DHT22;2012;49.794;9.722;2023-04-06T12:42:31;14.40;55.70
3996;DHT22;2012;49.794;9.722;2023-04-06T12:44:58;13.80;55.60
3996;DHT22;2012;49.794;9.722;2023-04-06T12:47:25;14.30;57.30
3996;DHT22;2012;49.794;9.722;2023-04-06T12:49:53;14.60;58.40
3996;DHT22;2012;49.794;9.722;2023-04-06T12:52:20;15.00;58.30
3996;DHT22;2012;49.794;9.722;2023-04-06T12:54:47;15.10;56.30
3996;DHT22;2012;49.794;9.722;2023-04-06T12:57:17;15.20;56.80
3996;DHT22;2012;49.794;9.722;2023-04-06T12:59:44;15.30;55.10
3996;DHT22;2012;49.794;9.722;2023-04-06T13:02:11;15.00;54.10
3996;DHT22;2012;49.794;9.722;2023-04-06T13:04:38;15.20;54.10
3996;DHT22;2012;49.794;9.722;2023-04-06T13:07:05;15.70;54.00
3996;DHT22;2012;49.794;9.722;2023-04-06T13:09:32;15.30;52.50
3996;DHT22;2012;49.794;9.722;2023-04-06T13:11:59;15.70;55.60
3996;DHT22;2012;49.794;9.722;2023-04-06T13:14:26;15.70;53.90
3996;DHT22;2012;49.794;9.722;2023-04-06T13:16:53;16.00;53.00
3996;DHT22;2012;49.794;9.722;2023-04-06T13:19:20;16.20;52.00
3996;DHT22;2012;49.794;9.722;2023-04-06T13:21:47;15.30;51.80
3996;DHT22;2012;49.794;9.722;2023-04-06T13:24:14;15.00;51.70
3996;DHT22;2012;49.794;9.722;2023-04-06T13:26:43;15.30;52.00
3996;DHT22;2012;49.794;9.722;2023-04-06T13:29:10;15.20;51.60
3996;DHT22;2012;49.794;9.722;2023-04-06T13:31:37;15.80;53.60
3996;DHT22;2012;49.794;9.722;2023-04-06T13:34:05;15.30;52.20
3996;DHT22;2012;49.794;9.722;2023-04-06T13:36:32;15.40;51.90
3996;DHT22;2012;49.794;9.722;2023-04-06T13:38:59;15.40;51.50
3996;DHT22;2012;49.794;9.722;2023-04-06T13:41:26;15.50;51.50
3996;DHT22;2012;49.794;9.722;2023-04-06T13:43:53;15.30;51.80
3996;DHT22;2012;49.794;9.722;2023-04-06T13:46:20;14.90;53.30
3996;DHT22;2012;49.794;9.722;2023-04-06T13:48:47;15.10;53.70
3996;DHT22;2012;49.794;9.722;2023-04-06T13:51:14;15.50;54.80
3996;DHT22;2012;49.794;9.722;2023-04-06T13:53:42;15.40;52.50
3996;DHT22;2012;49.794;9.722;2023-04-06T13:56:08;15.50;53.30
3996;DHT22;2012;49.794;9.722;2023-04-06T13:58:35;15.90;54.30
3996;DHT22;2012;49.794;9.722;2023-04-06T14:01:06;15.50;56.10
3996;DHT22;2012;49.794;9.722;2023-04-06T14:03:35;15.80;54.30
3996;DHT22;2012;49.794;9.722;2023-04-06T14:06:10;16.10;51.80
3996;DHT22;2012;49.794;9.722;2023-04-06T14:08:46;16.10;51.10
3996;DHT22;2012;49.794;9.722;2023-04-06T14:11:14;15.80;49.80
3996;DHT22;2012;49.794;9.722;2023-04-06T14:13:41;16.00;50.00
3996;DHT22;2012;49.794;9.722;2023-04-06T14:16:09;15.40;51.90
3996;DHT22;2012;49.794;9.722;2023-04-06T14:18:36;15.20;52.60
3996;DHT22;2012;49.794;9.722;2023-04-06T14:21:03;14.70;52.20
3996;DHT22;2012;49.794;9.722;2023-04-06T14:23:30;14.90;53.00
3996;DHT22;2012;49.794;9.722;2023-04-06T14:26:06;15.00;52.80
3996;DHT22;2012;49.794;9.722;2023-04-06T14:28:34;14.70;53.70
3996;DHT22;2012;49.794;9.722;2023-04-06T14:31:09;14.50;54.00
3996;DHT22;2012;49.794;9.722;2023-04-06T14:33:38;14.50;55.30
3996;DHT22;2012;49.794;9.722;2023-04-06T14:36:05;14.40;55.80
3996;DHT22;2012;49.794;9.722;2023-04-06T14:38:32;14.60;57.90
3996;DHT22;2012;49.794;9.722;2023-04-06T14:40:59;14.50;55.90
3996;DHT22;2012;49.794;9.722;2023-04-06T14:43:26;15.00;56.10
3996;DHT22;2012;49.794;9.722;2023-04-06T14:45:53;14.40;52.60
3996;DHT22;2012;49.794;9.722;2023-04-06T14:48:20;14.40;52.00
3996;DHT22;2012;49.794;9.722;2023-04-06T14:50:56;14.60;51.90
3996;DHT22;2012;49.794;9.722;2023-04-06T14:53:23;14.90;55.30
3996;DHT22;2012;49.794;9.722;2023-04-06T14:55:50;15.00;54.00
3996;DHT22;2012;49.794;9.722;2023-04-06T14:58:21;14.80;52.40
3996;DHT22;2012;49.794;9.722;2023-04-06T15:00:49;14.40;52.40
3996;DHT22;2012;49.794;9.722;2023-04-06T15:03:16;14.30;53.40
3996;DHT22;2012;49.794;9.722;2023-04-06T15:05:43;13.80;51.10
3996;DHT22;2012;49.794;9.722;2023-04-06T15:08:10;13.90;53.60
3996;DHT22;2012;49.794;9.722;2023-04-06T15:10:38;13.70;54.50
3996;DHT22;2012;49.794;9.722;2023-04-06T15:13:05;14.00;55.90
3996;DHT22;2012;49.794;9.722;2023-04-06T15:15:32;14.20;56.90
3996;DHT22;2012;49.794;9.722;2023-04-06T15:17:59;14.10;54.50
3996;DHT22;2012;49.794;9.722;2023-04-06T15:20:29;14.40;59.00
3996;DHT22;2012;49.794;9.722;2023-04-06T15:22:56;15.10;64.20
3996;DHT22;2012;49.794;9.722;2023-04-06T15:25:23;15.20;62.10
3996;DHT22;2012;49.794;9.722;2023-04-06T15:27:50;15.30;64.80
3996;DHT22;2012;49.794;9.722;2023-04-06T15:30:17;15.60;62.80
3996;DHT22;2012;49.794;9.722;2023-04-06T15:32:57;15.50;61.90
3996;DHT22;2012;49.794;9.722;2023-04-06T15:35:25;15.60;60.40
3996;DHT22;2012;49.794;9.722;2023-04-06T15:37:52;15.70;60.30
3996;DHT22;2012;49.794;9.722;2023-04-06T15:40:19;15.30;57.80
3996;DHT22;2012;49.794;9.722;2023-04-06T15:42:46;14.60;54.40
3996;DHT22;2012;49.794;9.722;2023-04-06T15:45:13;13.80;54.60
3996;DHT22;2012;49.794;9.722;2023-04-06T15:47:42;13.70;53.40
3996;DHT22;2012;49.794;9.722;2023-04-06T15:50:09;13.60;53.80
3996;DHT22;2012;49.794;9.722;2023-04-06T15:52:38;13.70;55.00
3996;DHT22;2012;49.794;9.722;2023-04-06T15:55:06;13.70;54.40
3996;DHT22;2012;49.794;9.722;2023-04-06T15:57:34;13.40;55.00
3996;DHT22;2012;49.794;9.722;2023-04-06T16:00:03;13.20;55.30
3996;DHT22;2012;49.794;9.722;2023-04-06T16:02:34;13.20;55.30
3996;DHT22;2012;49.794;9.722;2023-04-06T16:05:01;13.10;55.90
3996;DHT22;2012;49.794;9.722;2023-04-06T16:07:30;13.10;56.60
3996;DHT22;2012;49.794;9.722;2023-04-06T16:09:58;13.00;56.30
3996;DHT22;2012;49.794;9.722;2023-04-06T16:12:25;13.20;55.90
3996;DHT22;2012;49.794;9.722;2023-04-06T16:14:54;13.10;56.40
3996;DHT22;2012;49.794;9.722;2023-04-06T16:17:21;12.90;55.10
3996;DHT22;2012;49.794;9.722;2023-04-06T16:19:48;12.90;56.40
3996;DHT22;2012;49.794;9.722;2023-04-06T16:22:15;12.70;57.40
3996;DHT22;2012;49.794;9.722;2023-04-06T16:24:42;12.80;57.90
3996;DHT22;2012;49.794;9.722;2023-04-06T16:27:08;12.70;57.10
3996;DHT22;2012;49.794;9.722;2023-04-06T16:29:36;12.80;59.80